Accueil
METAR-TAF:

METAR-TAF

Aéroports :

Melun, France

Aérodrome de Melun-Villaroche

latitude: 48-37N, longitude: 002-41E, altitude: 95 m

Observation

Le bulletin a été fait il y a 23 minutes, à 21:00 UTC
Vent 6 kt de nord/nord-est
Température 4°C
Humidité 100%
Pression 1017 hPa
Visibilité 10 km ou plus
Quelques nuages à une hauteur de 2200 ft
Nuages épars à une hauteur de 2700 ft
Nuages fragmentés à une hauteur de 5200 ft
pluie faible

METAR: LFPM 262100Z AUTO 02006KT 9999 -RA FEW022 SCT027 BKN052 04/04 Q1017

Heure: 23:23 (21:23 UTC)


TAF: absent

Observations et prévisions météorologiques de plus de 4000 aéroports (messages METAR et TAF).

Les stations disponibles sont représentées par des disques jaunes et rouges sur la carte.

Passer la souris dessus pour voir le nom de la station.

Cliquer dessus pour voir les observations et prévisions météorologiques.

Pour changer de carte: cliquez sur les boutons verts avec une croix noire pour zoomer, sur le bouton vert avec un tiret pour effectuer un zoom arrière, ou sur les flèches vertes pour les cartes adjacentes.


METAR-TAF: